Time;durP1;ratioP1;P1;durP2;ratioP2;P2;SDS_P1;SDS_P2;PMS_P1;PMS_P2;Temp;Humidity;BMP_temperature;BMP_pressure;BME280_temperature;BME280_humidity;BME280_pressure;Samples;Min_cycle;Max_cycle;Signal;HPM_P1;HPM_P2
2022/02/06 00:00:22;;;;;;;5.60;3.55;;;4.40;97.60;;;;;;5052719;28;20044;-75
2022/02/06 00:02:50;;;;;;;6.07;2.83;;;4.40;97.60;;;;;;5053947;28;20055;-74
2022/02/06 00:05:16;;;;;;;5.45;3.65;;;4.40;97.70;;;;;;5071162;28;20029;-74
2022/02/06 00:07:45;;;;;;;5.88;2.67;;;4.40;97.60;;;;;;5071974;28;20025;-74
2022/02/06 00:10:11;;;;;;;8.57;2.60;;;4.40;97.50;;;;;;5071756;28;20024;-74
2022/02/06 00:12:37;;;;;;;3.90;2.00;;;4.40;97.50;;;;;;5076367;28;20055;-74
2022/02/06 00:15:04;;;;;;;3.10;1.60;;;4.30;97.60;;;;;;5075757;28;20033;-75
2022/02/06 00:17:31;;;;;;;5.85;2.65;;;4.30;97.70;;;;;;5076200;28;20031;-74
2022/02/06 00:19:58;;;;;;;13.68;2.33;;;4.40;97.60;;;;;;5075780;28;20047;-74
2022/02/06 00:22:27;;;;;;;3.72;2.47;;;4.40;97.40;;;;;;5076038;28;20044;-75
2022/02/06 00:32:47;;;;;;;5.63;2.33;;;4.40;97.20;;;;;;5075497;28;20036;-75
2022/02/06 00:41:12;;;;;;;2.75;1.60;;;4.40;97.20;;;;;;5075810;28;20058;-75
2022/02/06 00:43:39;;;;;;;14.32;2.58;;;4.40;97.30;;;;;;5056780;28;20044;-74
2022/02/06 00:46:08;;;;;;;7.05;2.17;;;4.50;97.20;;;;;;5074916;28;20027;-75
2022/02/06 00:48:38;;;;;;;5.63;1.83;;;4.50;97.20;;;;;;5073503;28;20044;-74
2022/02/06 00:51:26;;;;;;;7.32;2.40;;;4.50;97.00;;;;;;5075088;28;20035;-75
2022/02/06 00:53:52;;;;;;;9.68;2.75;;;4.50;97.00;;;;;;5075574;28;20028;-74
2022/02/06 00:56:18;;;;;;;2.95;1.48;;;4.50;97.20;;;;;;5074370;28;20020;-75
2022/02/06 00:58:45;;;;;;;5.68;1.63;;;4.50;97.20;;;;;;5075313;28;20040;-75
2022/02/06 01:01:11;;;;;;;7.25;2.03;;;4.50;97.20;;;;;;5074374;28;20040;-75
2022/02/06 01:03:38;;;;;;;4.40;2.33;;;4.40;97.30;;;;;;5074997;28;20397;-74
2022/02/06 01:06:04;;;;;;;4.18;2.05;;;4.40;97.50;;;;;;5074237;28;20025;-75
2022/02/06 01:08:30;;;;;;;4.35;2.15;;;4.50;97.50;;;;;;5073974;28;20040;-74
2022/02/06 01:11:04;;;;;;;7.15;2.30;;;4.50;97.40;;;;;;5075019;28;20045;-74
2022/02/06 01:13:44;;;;;;;6.88;2.80;;;4.50;97.30;;;;;;5073814;28;20041;-74
2022/02/06 01:16:25;;;;;;;4.88;2.13;;;4.60;97.30;;;;;;5075103;28;20024;-74
2022/02/06 01:18:59;;;;;;;4.05;1.73;;;4.60;96.90;;;;;;5075317;28;20020;-74
2022/02/06 01:21:33;;;;;;;3.88;1.73;;;4.70;96.70;;;;;;5074274;28;20047;-74
2022/02/06 01:24:06;;;;;;;4.43;1.75;;;4.70;96.70;;;;;;5056141;28;20044;-74
2022/02/06 01:26:44;;;;;;;3.55;1.88;;;4.70;96.80;;;;;;5075197;28;20032;-74
2022/02/06 01:29:52;;;;;;;11.40;2.22;;;4.70;96.70;;;;;;5074525;28;20025;-75
2022/02/06 01:32:11;;;;;;;4.68;2.90;;;4.70;96.70;;;;;;5070219;28;20501;-75
2022/02/06 01:37:14;;;;;;;7.63;2.10;;;4.60;96.90;;;;;;5074185;28;20033;-75
2022/02/06 01:42:15;;;;;;;8.15;2.25;;;4.70;96.90;;;;;;5073725;28;20029;-74
2022/02/06 02:09:08;;;;;;;5.47;1.27;;;5.50;92.40;;;;;;5073706;28;20039;-73
2022/02/06 02:14:28;;;;;;;7.53;2.13;;;5.60;92.00;;;;;;5073873;28;20029;-75
2022/02/06 02:22:36;;;;;;;5.53;1.60;;;5.60;91.50;;;;;;5073506;28;20458;-74
2022/02/06 02:46:37;;;;;;;5.75;1.73;;;5.70;91.20;;;;;;5072686;28;20043;-76
2022/02/06 02:49:06;;;;;;;4.03;1.52;;;5.70;91.20;;;;;;5073303;28;20462;-75
2022/02/06 02:51:37;;;;;;;13.05;1.27;;;5.70;91.10;;;;;;5072802;28;20032;-75
2022/02/06 02:54:09;;;;;;;2.72;1.63;;;5.70;91.10;;;;;;5072943;28;20036;-75
2022/02/06 02:56:51;;;;;;;8.02;1.20;;;5.60;91.10;;;;;;5072815;28;20028;-73
2022/02/06 03:01:55;;;;;;;7.80;1.48;;;5.80;90.90;;;;;;5072442;28;20048;-75
2022/02/06 03:04:22;;;;;;;5.00;1.45;;;5.80;90.70;;;;;;5071952;28;20033;-75
2022/02/06 03:06:48;;;;;;;5.32;1.45;;;5.80;90.70;;;;;;5072592;28;20029;-75
2022/02/06 03:09:15;;;;;;;6.15;1.73;;;5.80;90.70;;;;;;5072256;28;20032;-75
2022/02/06 03:11:42;;;;;;;1.73;1.23;;;5.70;90.70;;;;;;5072406;28;20032;-75
2022/02/06 03:14:16;;;;;;;1.65;0.90;;;5.80;90.50;;;;;;5072600;28;20036;-75
2022/02/06 03:16:49;;;;;;;3.47;1.27;;;5.80;90.40;;;;;;5072520;28;20024;-75
2022/02/06 03:19:18;;;;;;;3.00;1.40;;;5.80;90.40;;;;;;5071780;28;20039;-75
2022/02/06 03:21:47;;;;;;;2.83;1.05;;;5.90;90.20;;;;;;5072484;28;20040;-75
2022/02/06 03:26:45;;;;;;;5.45;1.27;;;5.70;90.60;;;;;;5072366;28;20509;-75
2022/02/06 03:29:12;;;;;;;8.60;1.65;;;5.70;90.80;;;;;;5071993;28;20043;-75
2022/02/06 03:31:39;;;;;;;7.20;1.50;;;5.70;90.80;;;;;;5072229;28;20056;-75
2022/02/06 03:34:06;;;;;;;5.78;1.40;;;5.70;90.80;;;;;;5071651;28;20037;-75
2022/02/06 03:36:32;;;;;;;2.30;1.35;;;5.70;90.80;;;;;;5071522;28;20032;-74
2022/02/06 03:38:58;;;;;;;2.42;1.15;;;5.70;90.80;;;;;;5072143;28;20024;-74
2022/02/06 03:41:27;;;;;;;2.58;0.88;;;5.70;90.80;;;;;;5071535;28;20041;-75
2022/02/06 03:44:17;;;;;;;5.28;2.00;;;5.70;90.70;;;;;;5072360;28;20029;-75
2022/02/06 03:46:55;;;;;;;4.68;1.58;;;5.70;90.60;;;;;;5071579;28;20037;-75
2022/02/06 03:49:29;;;;;;;2.92;1.20;;;5.70;90.70;;;;;;5070752;28;20031;-75
2022/02/06 03:51:56;;;;;;;9.88;1.85;;;5.70;90.80;;;;;;5054590;28;20037;-75
2022/02/06 03:54:23;;;;;;;3.47;1.33;;;5.70;90.70;;;;;;5070203;28;20377;-75
2022/02/06 03:56:52;;;;;;;3.28;1.50;;;5.70;90.80;;;;;;5071746;28;20021;-74
2022/02/06 03:59:18;;;;;;;3.13;1.17;;;5.70;90.90;;;;;;5071507;28;20024;-75
2022/02/06 04:01:44;;;;;;;3.92;1.45;;;5.60;91.00;;;;;;5072112;28;20441;-75
2022/02/06 04:04:10;;;;;;;3.35;1.25;;;5.60;91.10;;;;;;5071536;28;20461;-75
2022/02/06 04:06:40;;;;;;;2.45;1.15;;;5.60;91.10;;;;;;5071421;28;20037;-74
2022/02/06 04:09:13;;;;;;;8.65;1.55;;;5.60;91.20;;;;;;5053585;28;20041;-75
2022/02/06 04:11:49;;;;;;;4.65;1.45;;;5.50;91.20;;;;;;5072167;28;20036;-74
2022/02/06 04:14:28;;;;;;;3.75;1.50;;;5.50;91.30;;;;;;5070831;28;20037;-75
2022/02/06 04:16:58;;;;;;;2.08;1.02;;;5.50;91.40;;;;;;5071631;28;20060;-74
2022/02/06 04:19:25;;;;;;;4.55;1.52;;;5.50;91.30;;;;;;5071296;28;20025;-75
2022/02/06 04:21:56;;;;;;;5.90;1.95;;;5.50;91.30;;;;;;5071649;28;20096;-75
2022/02/06 04:24:26;;;;;;;8.75;1.88;;;5.50;91.30;;;;;;5071041;28;20036;-75
2022/02/06 04:26:53;;;;;;;3.63;1.58;;;5.40;91.40;;;;;;5071599;28;20028;-75
2022/02/06 04:29:20;;;;;;;2.58;1.30;;;5.40;91.40;;;;;;5071123;28;20417;-75
2022/02/06 04:31:48;;;;;;;7.30;1.83;;;5.40;91.30;;;;;;5070737;28;20040;-75
2022/02/06 04:34:21;;;;;;;6.25;1.50;;;5.40;91.10;;;;;;5071080;28;20040;-75
2022/02/06 04:39:47;;;;;;;4.95;1.45;;;5.40;91.10;;;;;;5071066;28;20028;-75
2022/02/06 04:42:19;;;;;;;8.98;2.00;;;5.40;91.10;;;;;;5070892;28;20041;-75
2022/02/06 04:45:22;;;;;;;4.57;1.70;;;5.40;91.10;;;;;;5071932;28;20024;-75
2022/02/06 05:23:22;;;;;;;17.55;11.55;;;5.30;90.60;;;;;;5073761;28;20047;-74
2022/02/06 05:28:36;;;;;;;6.00;4.47;;;5.30;90.50;;;;;;5050442;28;20044;-74
2022/02/06 05:31:07;;;;;;;;;;;5.20;90.70;;;;;;5074391;28;20048;-73
2022/02/06 05:33:35;;;;;;;22.73;15.75;;;5.20;90.70;;;;;;5074010;28;19908;-73
2022/02/06 05:36:04;;;;;;;5.28;3.83;;;5.20;90.80;;;;;;5074471;28;20029;-74
2022/02/06 05:38:31;;;;;;;6.55;4.00;;;5.20;90.70;;;;;;5073972;28;20040;-73
2022/02/06 05:40:57;;;;;;;5.82;3.75;;;5.20;90.80;;;;;;5074702;28;20037;-74
2022/02/06 05:43:23;;;;;;;9.73;3.95;;;5.20;90.70;;;;;;5074120;28;20032;-74
2022/02/06 05:45:49;;;;;;;19.63;12.27;;;5.20;90.70;;;;;;5074344;28;20424;-74
2022/02/06 05:48:15;;;;;;;13.63;5.82;;;5.20;90.80;;;;;;5074414;28;20028;-74
2022/02/06 05:50:44;;;;;;;7.63;3.90;;;5.20;90.80;;;;;;5073549;28;20040;-74
2022/02/06 05:53:12;;;;;;;6.55;2.83;;;5.20;90.80;;;;;;5074064;28;20029;-74
2022/02/06 05:55:38;;;;;;;7.30;4.05;;;5.20;90.80;;;;;;5073267;28;20021;-74
2022/02/06 05:58:06;;;;;;;4.43;2.70;;;5.20;90.90;;;;;;5073699;28;20045;-74
2022/02/06 06:00:32;;;;;;;12.65;6.68;;;5.20;91.10;;;;;;5072422;28;20048;-74
2022/02/06 06:03:00;;;;;;;10.60;3.20;;;5.20;90.90;;;;;;5073871;28;20385;-74
2022/02/06 06:05:27;;;;;;;4.65;2.92;;;5.20;91.00;;;;;;5073127;28;20029;-75
2022/02/06 06:07:53;;;;;;;3.92;2.97;;;5.20;91.00;;;;;;5073695;28;20025;-74
2022/02/06 06:10:20;;;;;;;7.50;3.05;;;5.20;91.10;;;;;;5073400;28;20028;-74
2022/02/06 06:12:46;;;;;;;3.83;1.25;;;5.20;90.90;;;;;;5073382;28;20044;-74
2022/02/06 06:15:12;;;;;;;7.18;4.25;;;5.20;91.00;;;;;;5073778;28;20346;-74
2022/02/06 06:17:45;;;;;;;4.05;2.92;;;5.20;90.90;;;;;;5073170;28;20036;-74
2022/02/06 06:20:15;;;;;;;4.47;2.90;;;5.20;90.90;;;;;;5073383;28;20370;-74
2022/02/06 06:22:42;;;;;;;7.87;2.97;;;5.20;90.90;;;;;;5073023;28;20033;-75
2022/02/06 06:25:10;;;;;;;8.82;5.63;;;5.20;90.80;;;;;;5073443;28;20263;-74
2022/02/06 06:27:36;;;;;;;3.63;1.70;;;5.20;90.90;;;;;;5073009;28;20450;-75
2022/02/06 06:30:04;;;;;;;5.80;2.55;;;5.10;91.00;;;;;;5073091;28;20384;-75
2022/02/06 06:32:30;;;;;;;7.88;3.92;;;5.10;91.00;;;;;;5072803;28;20037;-75
2022/02/06 06:35:02;;;;;;;3.50;2.03;;;5.10;91.00;;;;;;5073565;28;20032;-75
2022/02/06 06:37:31;;;;;;;7.22;3.90;;;5.10;91.20;;;;;;5072553;28;20028;-75
2022/02/06 06:39:57;;;;;;;7.03;2.30;;;5.10;91.10;;;;;;5072948;28;20382;-75
2022/02/06 06:42:24;;;;;;;5.30;3.08;;;5.10;91.20;;;;;;5072617;28;20052;-75
2022/02/06 06:44:51;;;;;;;8.77;3.65;;;5.10;91.00;;;;;;5072460;28;20469;-75
2022/02/06 06:47:17;;;;;;;9.18;4.30;;;5.10;91.10;;;;;;5073225;28;20028;-75
2022/02/06 06:49:43;;;;;;;6.03;3.72;;;5.10;91.20;;;;;;5071765;28;20041;-75
2022/02/06 06:52:09;;;;;;;6.55;1.92;;;5.10;91.20;;;;;;5073061;28;20033;-75
2022/02/06 06:54:40;;;;;;;4.57;2.47;;;5.10;91.30;;;;;;5072434;28;20040;-74
2022/02/06 06:57:22;;;;;;;4.57;2.50;;;5.10;91.20;;;;;;5072897;28;20032;-74
2022/02/06 07:04:49;;;;;;;4.78;2.40;;;5.10;91.50;;;;;;5054716;28;20044;-79
2022/02/06 07:07:15;;;;;;;2.92;2.10;;;5.10;91.50;;;;;;5072698;28;20389;-79
2022/02/06 07:09:42;;;;;;;6.18;2.55;;;5.10;91.50;;;;;;5072339;28;20039;-80
2022/02/06 07:12:10;;;;;;;2.42;1.77;;;5.10;91.60;;;;;;5072820;28;20028;-75
2022/02/06 07:14:37;;;;;;;5.32;2.40;;;5.10;91.60;;;;;;5071453;28;20025;-75
2022/02/06 07:17:03;;;;;;;6.47;2.22;;;5.20;91.60;;;;;;5072542;28;20032;-75
2022/02/06 07:19:29;;;;;;;4.28;2.25;;;5.10;91.80;;;;;;5071720;28;20029;-75
2022/02/06 07:21:56;;;;;;;4.20;2.75;;;5.10;91.70;;;;;;5071968;28;20043;-75
2022/02/06 07:24:26;;;;;;;7.93;3.53;;;5.10;91.80;;;;;;5090287;28;20470;-75
2022/02/06 07:26:58;;;;;;;5.13;2.47;;;5.20;91.80;;;;;;5092481;28;20062;-75
2022/02/06 07:29:24;;;;;;;3.63;2.65;;;5.20;91.80;;;;;;5091844;28;20051;-75
2022/02/06 07:31:51;;;;;;;2.35;1.48;;;5.20;92.00;;;;;;5092171;28;20040;-75
2022/02/06 07:34:17;;;;;;;4.95;2.20;;;5.30;91.70;;;;;;5091881;28;20457;-76
2022/02/06 07:36:44;;;;;;;3.88;1.98;;;5.30;91.80;;;;;;5091385;28;20457;-76
2022/02/06 07:39:10;;;;;;;3.22;1.77;;;5.30;91.60;;;;;;5088934;28;20036;-75
2022/02/06 07:41:36;;;;;;;11.80;2.30;;;5.40;91.60;;;;;;5073705;28;20051;-76
2022/02/06 07:44:02;;;;;;;5.38;1.70;;;5.40;91.60;;;;;;5092211;28;20031;-76
2022/02/06 07:46:41;;;;;;;8.07;1.80;;;5.40;91.50;;;;;;5091952;28;20050;-76
2022/02/06 07:49:07;;;;;;;7.22;1.75;;;5.50;91.60;;;;;;5092225;28;20034;-76
2022/02/06 07:51:35;;;;;;;5.70;1.75;;;5.50;91.50;;;;;;5091432;28;20044;-76
2022/02/06 07:54:02;;;;;;;7.07;1.38;;;5.60;91.50;;;;;;5074037;28;20035;-76
2022/02/06 07:56:29;;;;;;;4.25;1.67;;;5.60;91.30;;;;;;5091012;28;20040;-76
2022/02/06 07:58:55;;;;;;;4.72;1.48;;;5.70;91.20;;;;;;5092166;28;20055;-76
2022/02/06 08:01:21;;;;;;;3.85;1.75;;;5.80;91.10;;;;;;5091874;28;20044;-75
2022/02/06 08:03:47;;;;;;;5.47;1.60;;;5.80;90.90;;;;;;5091354;28;20032;-75
2022/02/06 08:06:15;;;;;;;1.85;0.98;;;5.80;90.90;;;;;;5091798;28;20044;-75
2022/02/06 08:08:41;;;;;;;2.53;1.38;;;5.90;90.80;;;;;;5091778;28;20043;-76
2022/02/06 08:11:12;;;;;;;3.63;1.38;;;5.90;90.70;;;;;;5092188;28;20051;-76
2022/02/06 08:13:42;;;;;;;1.42;1.08;;;6.00;90.60;;;;;;5091687;28;20039;-76
2022/02/06 08:16:09;;;;;;;4.15;1.90;;;6.10;90.40;;;;;;5092211;28;20469;-76
2022/02/06 08:18:39;;;;;;;3.42;1.17;;;6.20;90.20;;;;;;5091358;28;20024;-76
2022/02/06 08:21:07;;;;;;;7.05;3.10;;;6.20;90.20;;;;;;5092106;28;20036;-76
2022/02/06 08:23:33;;;;;;;6.78;5.68;;;6.20;90.10;;;;;;5091437;28;20028;-74
2022/02/06 08:26:00;;;;;;;2.88;1.10;;;6.20;90.20;;;;;;5091868;28;20032;-75
2022/02/06 08:28:26;;;;;;;3.97;1.70;;;6.40;89.80;;;;;;5073789;28;20035;-75
2022/02/06 08:30:52;;;;;;;3.83;1.80;;;6.40;89.40;;;;;;5091443;28;20032;-75
2022/02/06 08:33:18;;;;;;;2.90;1.30;;;6.50;89.50;;;;;;5092836;28;20028;-75
2022/02/06 08:35:45;;;;;;;8.02;1.88;;;6.50;89.80;;;;;;5094515;28;20457;-75
2022/02/06 08:38:12;;;;;;;4.03;1.63;;;6.50;90.10;;;;;;5095013;28;20043;-76
2022/02/06 08:40:39;;;;;;;3.03;1.40;;;6.60;90.00;;;;;;5094714;28;20369;-76
2022/02/06 08:43:07;;;;;;;3.47;2.05;;;6.60;90.50;;;;;;5095112;28;20032;-75
2022/02/06 08:45:33;;;;;;;1.45;1.20;;;6.60;90.70;;;;;;5095428;28;20385;-77
2022/02/06 08:47:59;;;;;;;8.90;1.55;;;6.60;90.90;;;;;;5095746;28;20043;-74
2022/02/06 08:50:25;;;;;;;3.58;1.70;;;6.60;90.50;;;;;;5095833;28;20035;-76
2022/02/06 08:52:57;;;;;;;4.35;1.38;;;6.60;90.60;;;;;;5094558;28;20465;-77
2022/02/06 08:55:24;;;;;;;7.38;1.20;;;6.70;90.40;;;;;;5092838;28;20389;-76
2022/02/06 08:57:51;;;;;;;2.75;0.90;;;6.70;90.00;;;;;;5093563;28;20433;-76
2022/02/06 09:00:19;;;;;;;4.18;1.48;;;6.80;89.40;;;;;;5095229;28;20051;-77
2022/02/06 09:02:46;;;;;;;2.70;0.88;;;6.90;89.20;;;;;;5094765;28;20051;-76
2022/02/06 09:05:12;;;;;;;3.47;1.13;;;6.90;88.70;;;;;;5095481;28;20031;-76
2022/02/06 09:07:41;;;;;;;7.78;1.67;;;6.90;89.20;;;;;;5094451;28;20043;-77
2022/02/06 09:10:13;;;;;;;5.80;1.65;;;6.90;88.70;;;;;;5095308;28;20044;-77
2022/02/06 09:12:44;;;;;;;11.13;1.58;;;6.90;88.50;;;;;;5094646;28;20040;-76
2022/02/06 09:15:14;;;;;;;4.45;1.60;;;6.90;88.30;;;;;;5095092;28;20039;-76
2022/02/06 09:17:44;;;;;;;1.70;0.80;;;7.00;87.90;;;;;;5094678;28;20054;-76
2022/02/06 09:20:11;;;;;;;2.50;1.13;;;7.00;87.90;;;;;;5076892;28;20059;-77
2022/02/06 09:22:38;;;;;;;4.40;1.45;;;7.10;87.90;;;;;;5094389;28;20040;-76
2022/02/06 09:25:05;;;;;;;5.47;1.40;;;7.10;87.30;;;;;;5094682;28;20027;-76
2022/02/06 09:27:35;;;;;;;3.63;1.60;;;7.20;87.10;;;;;;5094903;28;20039;-76
2022/02/06 09:30:07;;;;;;;2.15;0.68;;;7.20;86.60;;;;;;5094804;28;20067;-76
2022/02/06 09:37:29;;;;;;;4.30;1.25;;;7.30;86.60;;;;;;5094809;28;20035;-76
2022/02/06 09:39:57;;;;;;;15.52;4.65;;;7.20;86.50;;;;;;5093814;28;20032;-76
2022/02/06 09:42:25;;;;;;;7.88;3.72;;;7.20;86.80;;;;;;5094679;28;20036;-77
2022/02/06 09:44:52;;;;;;;5.10;3.13;;;7.30;87.00;;;;;;5093489;28;20043;-76
2022/02/06 09:47:24;;;;;;;6.32;1.65;;;7.30;86.70;;;;;;5094508;28;20028;-76
2022/02/06 09:49:51;;;;;;;3.25;1.98;;;7.30;87.00;;;;;;5093782;28;20042;-76
2022/02/06 09:52:25;;;;;;;3.60;2.75;;;7.30;87.10;;;;;;5094598;28;20039;-76
2022/02/06 09:55:10;;;;;;;2.85;1.63;;;7.30;87.40;;;;;;5093888;28;20040;-76
2022/02/06 09:57:50;;;;;;;2.42;1.23;;;7.20;87.50;;;;;;5095404;28;20063;-77
2022/02/06 10:00:18;;;;;;;2.33;1.23;;;7.30;87.70;;;;;;5096984;28;20127;-76
2022/02/06 10:02:47;;;;;;;3.65;1.45;;;7.30;88.00;;;;;;5094251;28;20040;-76
2022/02/06 10:05:15;;;;;;;2.55;1.20;;;7.30;88.00;;;;;;5094086;28;20039;-76
2022/02/06 10:07:52;;;;;;;2.63;1.20;;;7.20;88.40;;;;;;5091045;28;20028;-78
2022/02/06 10:10:22;;;;;;;2.72;1.17;;;7.20;88.60;;;;;;5087625;28;20029;-77
2022/02/06 10:12:52;;;;;;;1.83;1.00;;;7.20;88.70;;;;;;5073882;28;20397;-77
2022/02/06 10:15:19;;;;;;;7.53;1.48;;;7.20;88.70;;;;;;5073626;28;20032;-77
2022/02/06 10:17:47;;;;;;;3.42;0.98;;;7.30;89.00;;;;;;5071341;28;20028;-81
2022/02/06 10:20:31;;;;;;;2.13;0.90;;;7.30;88.80;;;;;;5094187;28;20020;-82
2022/02/06 10:23:03;;;;;;;3.28;1.20;;;7.30;88.70;;;;;;5092442;28;20063;-82
2022/02/06 10:25:31;;;;;;;2.42;1.38;;;7.30;88.90;;;;;;5093389;28;20385;-83
2022/02/06 10:30:43;;;;;;;1.83;0.88;;;7.40;88.60;;;;;;5083442;28;20040;-81
2022/02/06 10:33:12;;;;;;;2.28;1.35;;;7.40;88.40;;;;;;5092454;28;20038;-80
2022/02/06 10:35:41;;;;;;;5.63;1.00;;;7.40;88.30;;;;;;5074866;28;20032;-79
2022/02/06 10:38:28;;;;;;;3.10;1.02;;;7.40;88.20;;;;;;5093847;28;20060;-80
2022/02/06 10:41:13;;;;;;;3.53;1.00;;;7.40;88.10;;;;;;5092907;28;20032;-80
2022/02/06 10:43:56;;;;;;;3.55;0.98;;;7.40;87.70;;;;;;5092523;28;20047;-81
2022/02/06 10:46:23;;;;;;;2.95;1.40;;;7.40;87.60;;;;;;5090878;28;20027;-83
2022/02/06 10:48:55;;;;;;;4.07;1.45;;;7.50;88.00;;;;;;5092475;28;20032;-80
2022/02/06 10:51:37;;;;;;;1.42;0.88;;;7.40;88.00;;;;;;5093565;28;20059;-81
2022/02/06 10:54:09;;;;;;;2.63;1.13;;;7.40;87.90;;;;;;5093455;28;20039;-81
2022/02/06 10:56:40;;;;;;;1.50;0.90;;;7.50;88.10;;;;;;5092375;28;20032;-78
2022/02/06 10:59:08;;;;;;;6.03;1.58;;;7.40;88.10;;;;;;5076885;28;20047;-78
2022/02/06 11:01:38;;;;;;;11.95;5.93;;;7.40;88.60;;;;;;5094582;28;20036;-78
2022/02/06 11:04:47;;;;;;;9.30;1.63;;;7.40;88.80;;;;;;5094133;28;20342;-79
2022/02/06 11:07:16;;;;;;;1.25;0.70;;;7.40;89.10;;;;;;5089701;28;20040;-79
2022/02/06 11:09:42;;;;;;;2.58;1.35;;;7.50;89.10;;;;;;5094843;28;20035;-80
2022/02/06 11:12:13;;;;;;;5.78;1.70;;;7.50;89.60;;;;;;5093116;28;20036;-78
2022/02/06 11:14:46;;;;;;;3.08;1.50;;;7.40;90.00;;;;;;5073804;28;20047;-81
2022/02/06 11:17:20;;;;;;;12.02;5.50;;;7.40;90.50;;;;;;5092510;28;20036;-80
2022/02/06 11:20:02;;;;;;;5.95;2.70;;;7.50;90.40;;;;;;5092333;28;20028;-76
2022/02/06 11:22:29;;;;;;;4.32;2.05;;;7.50;90.50;;;;;;5093030;28;20095;-78
2022/02/06 11:24:56;;;;;;;1.67;1.27;;;7.40;90.70;;;;;;5092356;28;20043;-84
2022/02/06 11:27:24;;;;;;;3.08;1.25;;;7.40;90.70;;;;;;5078333;28;20040;-80
2022/02/06 11:29:50;;;;;;;2.42;1.50;;;7.40;91.00;;;;;;5092862;28;20035;-84
2022/02/06 11:32:17;;;;;;;2.03;1.30;;;7.50;90.70;;;;;;5092111;28;20044;-82
2022/02/06 11:34:44;;;;;;;2.45;0.95;;;7.40;90.90;;;;;;5074194;28;20369;-82
2022/02/06 11:43:55;;;;;;;2.83;0.82;;;7.40;90.80;;;;;;5074041;28;20052;-79
2022/02/06 11:46:51;;;;;;;3.63;2.00;;;7.40;91.50;;;;;;5092792;28;20047;-79
2022/02/06 11:49:20;;;;;;;10.88;7.88;;;7.30;91.90;;;;;;5092921;28;20036;-81
2022/02/06 11:51:50;;;;;;;3.97;2.30;;;7.20;92.80;;;;;;5091616;28;20041;-81
2022/02/06 11:54:30;;;;;;;3.70;2.70;;;7.20;93.00;;;;;;5092259;28;20059;-81
2022/02/06 11:57:33;;;;;;;11.95;7.45;;;7.10;94.10;;;;;;5090432;28;20028;-81
2022/02/06 12:00:07;;;;;;;9.57;6.10;;;7.00;94.40;;;;;;5091690;28;20043;-84
2022/02/06 12:02:41;;;;;;;4.22;1.80;;;7.00;94.70;;;;;;5092901;28;20063;-82
2022/02/06 12:05:28;;;;;;;8.27;6.13;;;6.90;95.00;;;;;;5092418;28;20032;-81
2022/02/06 12:07:56;;;;;;;15.73;2.13;;;6.80;96.10;;;;;;5095021;28;20032;-80
2022/02/06 12:10:51;;;;;;;3.75;2.22;;;6.80;97.70;;;;;;5096375;28;20036;-81
2022/02/06 12:13:22;;;;;;;3.17;2.05;;;6.70;98.40;;;;;;5095644;28;20036;-82
2022/02/06 12:15:52;;;;;;;2.22;1.40;;;6.60;99.50;;;;;;5095798;28;20035;-84
2022/02/06 12:18:27;;;;;;;2.58;2.08;;;6.60;99.90;;;;;;5078645;28;20043;-81
2022/02/06 12:20:56;;;;;;;4.03;1.98;;;6.60;99.90;;;;;;5095741;28;20043;-83
2022/02/06 12:23:39;;;;;;;6.57;2.28;;;6.50;99.90;;;;;;5096049;28;20035;-82
2022/02/06 12:26:28;;;;;;;4.05;1.65;;;6.50;99.90;;;;;;5095857;28;20036;-82
2022/02/06 12:29:28;;;;;;;2.80;1.58;;;6.40;99.90;;;;;;5095626;28;20033;-81
2022/02/06 12:31:59;;;;;;;6.70;1.80;;;6.40;99.90;;;;;;5082077;28;20052;-81
2022/02/06 12:37:42;;;;;;;13.20;1.45;;;6.30;99.90;;;;;;5096013;28;20465;-83
2022/02/06 12:40:14;;;;;;;2.28;1.40;;;6.20;99.90;;;;;;5096048;28;20032;-82
2022/02/06 12:42:48;;;;;;;2.42;1.50;;;6.20;99.90;;;;;;5096227;28;20048;-81
2022/02/06 12:45:17;;;;;;;7.80;1.65;;;6.20;99.90;;;;;;5096364;28;20032;-82
2022/02/06 12:47:46;;;;;;;2.00;1.27;;;6.20;99.90;;;;;;5095301;28;20055;-83
2022/02/06 12:50:16;;;;;;;2.03;1.40;;;6.10;99.90;;;;;;5077094;28;20040;-81
2022/02/06 12:52:43;;;;;;;1.30;1.10;;;6.10;99.90;;;;;;5096344;28;20381;-82
2022/02/06 12:55:11;;;;;;;6.97;2.08;;;6.10;99.90;;;;;;5095864;28;20047;-82
2022/02/06 12:57:56;;;;;;;3.67;1.88;;;6.10;99.90;;;;;;5095034;28;20036;-81
2022/02/06 13:00:52;;;;;;;2.50;1.38;;;6.10;99.90;;;;;;5075001;28;20478;-82
2022/02/06 13:03:23;;;;;;;2.47;1.60;;;6.10;99.90;;;;;;5093951;28;20036;-83
2022/02/06 13:05:54;;;;;;;2.63;1.10;;;6.20;99.90;;;;;;5095497;28;20028;-84
2022/02/06 13:08:21;;;;;;;8.52;2.80;;;6.20;99.90;;;;;;5095481;28;20039;-84
2022/02/06 13:11:04;;;;;;;4.13;1.90;;;6.30;99.90;;;;;;5095152;28;20035;-86
2022/02/06 13:13:38;;;;;;;3.30;2.70;;;6.30;99.90;;;;;;5077258;28;20048;-86
2022/02/06 13:19:03;;;;;;;2.22;1.20;;;6.30;99.90;;;;;;5095344;28;20484;-80
2022/02/06 13:29:30;;;;;;;2.92;1.00;;;6.30;99.90;;;;;;5053467;28;20048;-88
2022/02/06 13:33:04;;;;;;;1.13;0.57;;;6.40;99.90;;;;;;5076554;28;20044;-82
2022/02/06 13:35:23;;;;;;;2.33;0.80;;;6.40;99.90;;;;;;5076761;28;20047;-84
2022/02/06 13:37:59;;;;;;;1.73;0.70;;;6.40;99.90;;;;;;5095649;28;20040;-86
2022/02/06 13:40:30;;;;;;;2.00;0.95;;;6.50;99.90;;;;;;5094772;28;20055;-82
2022/02/06 13:43:01;;;;;;;4.18;0.90;;;6.50;99.90;;;;;;5076896;28;20047;-82
2022/02/06 13:45:29;;;;;;;1.45;0.70;;;6.50;99.90;;;;;;5095098;28;20055;-82
2022/02/06 13:47:56;;;;;;;1.20;0.80;;;6.50;99.90;;;;;;5094277;28;20389;-83
2022/02/06 13:50:24;;;;;;;3.22;1.15;;;6.50;99.90;;;;;;5094510;28;20032;-78
2022/02/06 13:53:15;;;;;;;4.28;1.15;;;6.50;99.90;;;;;;5093582;28;20374;-80
2022/02/06 13:55:46;;;;;;;1.42;0.90;;;6.50;99.90;;;;;;5094958;28;20036;-80
2022/02/06 13:58:17;;;;;;;;;;;6.50;99.90;;;;;;5076267;28;20043;-82
2022/02/06 14:01:14;;;;;;;1.88;0.82;;;6.60;99.90;;;;;;5094817;28;19912;-81
2022/02/06 14:03:49;;;;;;;1.58;0.85;;;6.60;99.90;;;;;;5081749;28;20432;-81
2022/02/06 14:06:18;;;;;;;0.75;0.52;;;6.60;99.90;;;;;;5094542;28;20036;-82
2022/02/06 14:08:59;;;;;;;1.65;0.60;;;6.60;99.90;;;;;;5094775;28;20039;-79
2022/02/06 14:11:31;;;;;;;1.92;0.73;;;6.60;99.90;;;;;;5096074;28;20032;-81
2022/02/06 14:14:16;;;;;;;5.05;1.65;;;6.60;99.90;;;;;;5080257;28;20036;-80
2022/02/06 14:16:47;;;;;;;2.25;1.15;;;6.60;99.90;;;;;;5100758;28;20024;-84
2022/02/06 14:19:15;;;;;;;;;;;6.50;99.90;;;;;;5095893;28;20028;-81
2022/02/06 14:21:43;;;;;;;1.52;1.13;;;6.60;99.90;;;;;;5094347;28;19912;-81
2022/02/06 14:24:09;;;;;;;1.25;0.88;;;6.60;99.90;;;;;;5093271;28;20063;-83
2022/02/06 14:26:36;;;;;;;1.83;0.88;;;6.60;99.90;;;;;;5094709;28;20369;-84
2022/02/06 14:29:14;;;;;;;1.10;0.95;;;6.60;99.90;;;;;;5093280;28;20028;-82
2022/02/06 14:31:41;;;;;;;1.35;0.75;;;6.60;99.90;;;;;;5094054;28;20047;-79
2022/02/06 14:34:18;;;;;;;1.95;1.48;;;6.60;99.90;;;;;;5093262;28;20051;-79
2022/02/06 14:37:06;;;;;;;2.88;1.50;;;6.70;99.90;;;;;;5093822;28;20032;-81
2022/02/06 14:39:36;;;;;;;6.40;2.03;;;6.60;99.90;;;;;;5093894;28;20035;-81
2022/02/06 14:42:13;;;;;;;3.33;2.47;;;6.70;99.90;;;;;;5093786;28;20024;-81
2022/02/06 14:44:40;;;;;;;4.05;1.10;;;6.60;99.90;;;;;;5093550;28;20488;-79
2022/02/06 14:47:06;;;;;;;6.97;1.38;;;6.60;99.90;;;;;;5092913;28;20035;-79
2022/02/06 14:49:32;;;;;;;1.52;1.33;;;6.60;99.90;;;;;;5093555;28;20032;-80
2022/02/06 14:51:59;;;;;;;0.52;0.45;;;6.60;99.90;;;;;;5092976;28;20032;-81
2022/02/06 14:54:32;;;;;;;1.23;0.85;;;6.60;99.90;;;;;;5093087;28;20043;-80
2022/02/06 14:56:59;;;;;;;1.35;0.73;;;6.60;99.90;;;;;;5092932;28;20028;-79
2022/02/06 14:59:25;;;;;;;1.23;0.60;;;6.60;99.90;;;;;;5093646;28;20032;-78
2022/02/06 15:01:52;;;;;;;0.77;0.70;;;6.50;99.90;;;;;;5092792;28;20055;-84
2022/02/06 15:04:19;;;;;;;1.48;0.63;;;6.50;99.90;;;;;;5092877;28;20051;-83
2022/02/06 15:06:45;;;;;;;0.88;0.40;;;6.50;99.90;;;;;;5093549;28;20020;-79
2022/02/06 15:09:11;;;;;;;0.45;0.40;;;6.50;99.90;;;;;;5091882;28;20047;-80
2022/02/06 15:11:38;;;;;;;0.70;0.30;;;6.50;99.90;;;;;;5092492;28;20031;-78
2022/02/06 15:14:04;;;;;;;1.15;0.40;;;6.50;99.90;;;;;;5092105;28;20036;-81
2022/02/06 15:16:33;;;;;;;0.80;0.50;;;6.50;99.90;;;;;;5092606;28;20036;-80
2022/02/06 15:19:14;;;;;;;0.28;0.28;;;6.50;99.90;;;;;;5092224;28;20028;-80
2022/02/06 15:21:41;;;;;;;0.87;0.47;;;6.40;99.90;;;;;;5093183;28;20032;-77
2022/02/06 15:24:08;;;;;;;0.77;0.40;;;6.50;99.90;;;;;;5056672;28;20075;-77
2022/02/06 15:26:34;;;;;;;1.13;0.57;;;6.50;99.90;;;;;;5092881;28;20035;-76
2022/02/06 15:29:00;;;;;;;10.10;6.70;;;6.50;99.90;;;;;;5091962;28;20570;-76
2022/02/06 15:31:26;;;;;;;7.53;5.50;;;6.50;99.90;;;;;;5092940;28;20032;-77
2022/02/06 15:33:53;;;;;;;1.40;0.50;;;6.50;99.90;;;;;;5092088;28;20036;-85
2022/02/06 15:36:20;;;;;;;0.68;0.47;;;6.50;99.90;;;;;;5092852;28;20377;-78
2022/02/06 15:38:48;;;;;;;0.73;0.30;;;6.50;99.90;;;;;;5092621;28;20350;-77
2022/02/06 15:41:15;;;;;;;2.90;1.50;;;6.50;99.90;;;;;;5091225;28;20040;-77
2022/02/06 15:43:41;;;;;;;2.53;0.38;;;6.50;99.90;;;;;;5092749;28;20040;-77
2022/02/06 15:46:07;;;;;;;1.35;0.52;;;6.50;99.90;;;;;;5091895;28;20036;-77
2022/02/06 15:48:33;;;;;;;1.63;0.40;;;6.60;99.90;;;;;;5092671;28;20036;-77